createdAt,value
2024-02-04T00:00:36.121Z,74.46
2024-02-04T00:01:35.516Z,74.13
2024-02-04T00:02:35.374Z,73.91
2024-02-04T00:06:54.664Z,76.27
2024-02-04T00:07:55.008Z,74.66
2024-02-04T00:08:54.596Z,74.63
2024-02-04T00:22:23.727Z,76.97
2024-02-04T00:32:25.363Z,77.12
2024-02-04T00:35:08.327Z,77.70
2024-02-04T00:36:07.481Z,76.28
2024-02-04T00:37:07.237Z,75.89
2024-02-04T00:38:07.205Z,75.76
2024-02-04T00:39:08.193Z,75.64
2024-02-04T00:40:07.668Z,75.60
2024-02-04T00:50:14.236Z,77.94
2024-02-04T00:52:34.708Z,76.70
2024-02-04T00:53:34.953Z,76.14
2024-02-04T00:58:00.244Z,77.00
2024-02-04T00:59:00.750Z,76.18
2024-02-04T01:04:50.780Z,77.86
2024-02-04T01:05:47.398Z,76.18
2024-02-04T01:06:56.320Z,75.80
2024-02-04T01:07:46.802Z,75.73
2024-02-04T01:08:45.785Z,75.66
2024-02-04T01:09:45.838Z,75.63
2024-02-04T01:10:45.809Z,75.58
2024-02-04T01:11:45.819Z,75.59
2024-02-04T01:12:45.842Z,75.57
2024-02-04T01:13:45.709Z,75.58
2024-02-04T01:14:45.740Z,75.61
2024-02-04T01:15:46.097Z,75.81
2024-02-04T01:24:46.354Z,79.25
2024-02-04T01:25:44.177Z,77.42
2024-02-04T01:26:43.250Z,76.85
2024-02-04T01:30:10.106Z,78.31
2024-02-04T01:32:12.838Z,76.64
2024-02-04T01:33:09.400Z,76.58
2024-02-04T01:34:10.168Z,76.38
2024-02-04T01:39:24.736Z,78.23
2024-02-04T01:40:22.810Z,76.58
2024-02-04T01:41:23.707Z,76.29
2024-02-04T01:51:05.864Z,78.81
2024-02-04T02:09:52.594Z,80.70
2024-02-04T02:13:31.600Z,79.18
2024-02-04T02:25:43.467Z,81.28
2024-02-04T02:28:03.901Z,80.17
2024-02-04T02:38:08.643Z,80.48
2024-02-04T02:44:03.386Z,80.68
2024-02-04T02:45:02.005Z,79.11
2024-02-04T02:49:10.936Z,80.64
2024-02-04T02:50:10.898Z,79.21
2024-02-04T02:51:11.053Z,78.84
2024-02-04T02:52:11.698Z,78.83
2024-02-04T02:53:10.699Z,78.67
2024-02-04T02:54:10.767Z,78.57
2024-02-04T02:55:10.852Z,78.46
2024-02-04T02:59:32.335Z,79.70
2024-02-04T03:16:26.938Z,80.30
2024-02-04T03:17:23.685Z,79.62
2024-02-04T03:18:22.840Z,79.48
2024-02-04T03:19:22.860Z,79.38
2024-02-04T03:20:22.926Z,79.45
2024-02-04T03:22:47.834Z,81.16
2024-02-04T03:31:20.440Z,82.64
2024-02-04T03:34:54.692Z,81.50
2024-02-04T03:35:54.792Z,79.61
2024-02-04T03:36:55.266Z,79.15
2024-02-04T04:10:16.038Z,81.88
2024-02-04T04:11:15.103Z,80.10
2024-02-04T04:12:15.110Z,79.59
2024-02-04T04:13:16.143Z,79.33
2024-02-04T04:19:08.564Z,81.62
2024-02-04T04:20:08.389Z,80.05
2024-02-04T04:21:10.060Z,79.62
2024-02-04T04:24:15.614Z,81.37
2024-02-04T04:26:36.991Z,80.73
2024-02-04T04:27:36.730Z,79.77
2024-02-04T04:28:36.100Z,79.53
2024-02-04T04:39:06.512Z,82.51
2024-02-04T04:40:06.623Z,80.88
2024-02-04T04:41:07.678Z,80.54
2024-02-04T04:45:36.629Z,82.23
2024-02-04T04:46:35.698Z,80.68
2024-02-04T04:47:35.606Z,80.39
2024-02-04T04:51:07.284Z,81.97
2024-02-04T04:52:07.339Z,80.46
2024-02-04T05:03:20.550Z,82.82
2024-02-04T05:05:48.810Z,82.45
2024-02-04T05:08:25.832Z,82.26
2024-02-04T05:13:32.515Z,82.51
2024-02-04T05:17:02.248Z,82.64
2024-02-04T05:19:22.206Z,81.09
2024-02-04T05:36:39.213Z,82.47
2024-02-04T05:37:50.623Z,80.75
2024-02-04T05:38:39.442Z,80.61
2024-02-04T05:49:57.836Z,82.04
2024-02-04T05:57:06.292Z,82.05
2024-02-04T06:00:08.783Z,81.79
2024-02-04T06:14:05.821Z,82.24
2024-02-04T06:23:28.175Z,80.89
2024-02-04T06:27:16.783Z,82.14
2024-02-04T06:34:07.370Z,82.31
2024-02-04T06:35:06.120Z,80.69
2024-02-04T06:36:04.832Z,80.41
2024-02-04T06:40:23.585Z,82.66
2024-02-04T06:41:23.616Z,80.98
2024-02-04T06:44:25.316Z,82.12
2024-02-04T06:51:20.221Z,82.11
2024-02-04T06:55:52.799Z,82.17
2024-02-04T06:56:52.712Z,80.63
2024-02-04T06:57:52.496Z,80.25
2024-02-04T07:11:10.689Z,80.62
2024-02-04T07:27:37.353Z,81.37
2024-02-04T07:32:02.797Z,80.73
2024-02-04T07:33:02.582Z,80.42
2024-02-04T07:44:24.800Z,81.22
2024-02-04T07:46:45.133Z,79.90
2024-02-04T07:50:49.661Z,81.59
2024-02-04T07:54:02.474Z,80.58
2024-02-04T07:55:01.560Z,79.81
2024-02-04T07:58:48.962Z,81.21
2024-02-04T07:59:48.737Z,79.54
2024-02-04T08:00:48.704Z,79.14
2024-02-04T08:01:48.735Z,78.90
2024-02-04T08:07:34.564Z,80.75
2024-02-04T08:09:53.850Z,79.29
2024-02-04T08:16:01.331Z,79.54
2024-02-04T08:17:01.309Z,77.70
2024-02-04T08:26:24.823Z,79.22
2024-02-04T08:27:24.476Z,77.61
2024-02-04T08:29:44.285Z,77.34
2024-02-04T08:30:43.877Z,76.97
2024-02-04T08:34:43.411Z,79.04
2024-02-04T08:35:43.066Z,77.44
2024-02-04T08:36:43.823Z,77.10
2024-02-04T08:37:43.123Z,76.98
2024-02-04T08:38:42.873Z,76.86
2024-02-04T08:41:03.982Z,76.99
2024-02-04T08:49:59.664Z,78.24
2024-02-04T08:50:58.993Z,76.29
2024-02-04T08:52:00.650Z,75.66
2024-02-04T08:56:31.739Z,76.59
2024-02-04T08:58:50.350Z,74.74
2024-02-04T08:59:50.655Z,73.76
2024-02-04T09:00:50.258Z,73.41
2024-02-04T09:01:50.551Z,73.23
2024-02-04T09:02:50.661Z,73.09
2024-02-04T09:06:17.415Z,74.86
2024-02-04T09:07:17.496Z,73.04
2024-02-04T09:09:52.698Z,73.12
2024-02-04T09:10:59.578Z,65.87
2024-02-04T09:11:52.018Z,61.62
2024-02-04T09:12:52.216Z,58.69
2024-02-04T09:13:52.313Z,57.60
2024-02-04T09:14:51.607Z,57.73
2024-02-04T09:17:11.564Z,57.85
2024-02-04T09:18:12.030Z,56.77
2024-02-04T09:19:12.868Z,53.58
2024-02-04T09:20:11.545Z,51.75
2024-02-04T09:21:11.532Z,49.34
2024-02-04T09:22:11.590Z,47.62
2024-02-04T09:23:11.427Z,46.68
2024-02-04T09:24:11.393Z,46.98
2024-02-04T09:25:11.535Z,46.92
2024-02-04T09:26:11.677Z,46.07
2024-02-04T09:27:11.601Z,44.66
2024-02-04T09:28:11.488Z,44.80
2024-02-04T09:29:11.462Z,44.39
2024-02-04T09:30:11.387Z,44.04
2024-02-04T09:31:11.609Z,41.93
2024-02-04T09:32:11.487Z,41.88
2024-02-04T09:33:11.664Z,41.52
2024-02-04T09:34:11.589Z,42.07
2024-02-04T09:35:11.537Z,42.48
2024-02-04T09:36:11.627Z,42.89
2024-02-04T09:37:11.916Z,43.65
2024-02-04T09:38:14.303Z,43.16
2024-02-04T09:39:11.303Z,42.36
2024-02-04T09:40:11.571Z,41.71
2024-02-04T09:41:11.307Z,42.18
2024-02-04T09:42:11.291Z,42.86
2024-02-04T09:43:11.398Z,43.57
2024-02-04T09:44:11.336Z,44.33
2024-02-04T09:45:11.303Z,44.60
2024-02-04T09:46:11.279Z,45.05
2024-02-04T09:47:11.210Z,45.61
2024-02-04T09:48:11.428Z,46.24
2024-02-04T09:49:11.490Z,46.27
2024-02-04T09:50:11.362Z,44.87
2024-02-04T09:51:11.512Z,45.21
2024-02-04T09:52:11.431Z,45.94
2024-02-04T09:53:11.370Z,45.63
2024-02-04T09:54:11.453Z,44.39
2024-02-04T09:55:11.351Z,44.21
2024-02-04T09:56:11.190Z,42.23
2024-02-04T09:57:11.158Z,40.33
2024-02-04T09:58:11.372Z,40.12
2024-02-04T09:59:11.880Z,39.09
2024-02-04T10:00:11.423Z,38.28
2024-02-04T10:01:11.201Z,38.63
2024-02-04T10:02:11.500Z,39.67
2024-02-04T10:03:11.228Z,39.34
2024-02-04T10:04:11.305Z,39.56
2024-02-04T10:05:11.466Z,39.22
2024-02-04T10:06:11.445Z,40.24
2024-02-04T10:07:11.379Z,39.78
2024-02-04T10:08:11.287Z,39.70
2024-02-04T10:09:11.256Z,39.95
2024-02-04T10:10:11.294Z,40.12
2024-02-04T10:11:11.458Z,40.19
2024-02-04T10:12:11.774Z,39.95
2024-02-04T10:13:11.207Z,38.84
2024-02-04T10:14:11.280Z,38.91
2024-02-04T10:15:11.310Z,38.56
2024-02-04T10:16:11.132Z,38.16
2024-02-04T10:17:11.463Z,37.90
2024-02-04T10:18:11.167Z,37.99
2024-02-04T10:19:11.113Z,37.58
2024-02-04T10:20:11.065Z,37.46
2024-02-04T10:21:11.015Z,37.81
2024-02-04T10:22:11.151Z,37.64
2024-02-04T10:23:11.027Z,37.13
2024-02-04T10:24:11.358Z,37.23
2024-02-04T10:25:11.880Z,37.16
2024-02-04T10:26:11.320Z,36.40
2024-02-04T10:27:15.993Z,35.44
2024-02-04T10:28:12.035Z,34.81
2024-02-04T10:29:11.206Z,33.98
2024-02-04T10:30:11.931Z,33.13
2024-02-04T10:31:11.079Z,32.36
2024-02-04T10:32:11.092Z,32.13
2024-02-04T10:33:11.065Z,32.21
2024-02-04T10:34:11.057Z,32.01
2024-02-04T10:35:10.921Z,31.62
2024-02-04T10:36:10.989Z,31.11
2024-02-04T10:37:11.056Z,30.92
2024-02-04T10:38:10.972Z,31.44
2024-02-04T10:39:11.873Z,31.50
2024-02-04T10:40:11.063Z,31.19
2024-02-04T10:41:10.963Z,30.95
2024-02-04T10:42:10.898Z,30.52
2024-02-04T10:44:31.146Z,31.83
2024-02-04T10:45:30.631Z,32.35
2024-02-04T10:46:30.349Z,33.31
2024-02-04T10:47:30.333Z,33.74
2024-02-04T10:48:30.462Z,33.46
2024-02-04T10:49:30.449Z,32.57
2024-02-04T10:50:30.321Z,31.84
2024-02-04T10:51:30.502Z,31.46
2024-02-04T10:52:30.479Z,30.54
2024-02-04T10:53:30.402Z,30.17
2024-02-04T10:54:30.551Z,29.72
2024-02-04T10:57:39.181Z,29.47
2024-02-04T10:58:37.590Z,28.03
2024-02-04T10:59:38.425Z,27.55
2024-02-04T11:00:38.063Z,27.20
2024-02-04T11:01:38.401Z,26.65
2024-02-04T11:02:37.615Z,26.33
2024-02-04T11:03:37.837Z,26.22
2024-02-04T11:04:37.930Z,26.66
2024-02-04T11:05:37.654Z,26.41
2024-02-04T11:06:37.637Z,25.79
2024-02-04T11:07:37.590Z,25.62
2024-02-04T11:08:37.594Z,25.36
2024-02-04T11:09:37.806Z,24.61
2024-02-04T11:10:38.622Z,25.21
2024-02-04T11:11:37.582Z,25.15
2024-02-04T11:14:55.591Z,26.06
2024-02-04T11:15:55.257Z,25.49
2024-02-04T11:16:55.026Z,26.01
2024-02-04T11:17:55.339Z,25.85
2024-02-04T11:18:55.921Z,24.44
2024-02-04T11:19:55.225Z,23.85
2024-02-04T11:20:55.053Z,23.39
2024-02-04T11:21:55.007Z,23.07
2024-02-04T11:22:54.982Z,22.51
2024-02-04T11:23:54.973Z,22.21
2024-02-04T11:24:55.036Z,23.15
2024-02-04T11:25:58.146Z,24.23
2024-02-04T11:26:54.994Z,24.70
2024-02-04T11:27:55.072Z,24.86
2024-02-04T11:28:55.051Z,24.61
2024-02-04T11:29:55.071Z,24.02
2024-02-04T11:30:55.119Z,23.90
2024-02-04T11:31:57.778Z,24.89
2024-02-04T11:32:55.151Z,25.84
2024-02-04T11:33:55.254Z,25.81
2024-02-04T11:34:55.059Z,25.19
2024-02-04T11:35:55.093Z,24.96
2024-02-04T11:36:54.929Z,24.69
2024-02-04T11:37:56.750Z,24.95
2024-02-04T11:38:55.278Z,25.65
2024-02-04T11:39:55.092Z,26.20
2024-02-04T11:40:54.912Z,25.90
2024-02-04T11:41:55.151Z,26.20
2024-02-04T11:42:55.101Z,26.11
2024-02-04T11:43:58.356Z,25.27
2024-02-04T11:44:55.946Z,24.86
2024-02-04T11:45:55.931Z,24.85
2024-02-04T11:46:54.878Z,24.57
2024-02-04T11:47:54.908Z,23.77
2024-02-04T11:48:55.119Z,23.40
2024-02-04T11:49:55.023Z,23.14
2024-02-04T11:50:55.084Z,23.28
2024-02-04T11:51:55.102Z,23.33
2024-02-04T11:52:55.021Z,23.82
2024-02-04T11:53:54.812Z,24.31
2024-02-04T11:54:54.908Z,24.02
2024-02-04T11:55:54.974Z,24.23
2024-02-04T11:56:55.265Z,24.68
2024-02-04T11:57:55.119Z,24.18
2024-02-04T11:58:54.817Z,23.72
2024-02-04T11:59:54.828Z,23.59
2024-02-04T12:00:54.972Z,23.86
2024-02-04T12:01:54.946Z,24.39
2024-02-04T12:02:54.809Z,24.95
2024-02-04T12:03:55.028Z,25.47
2024-02-04T12:04:54.967Z,26.09
2024-02-04T12:05:54.880Z,26.37
2024-02-04T12:06:54.995Z,26.40
2024-02-04T12:07:55.407Z,26.31
2024-02-04T12:08:55.299Z,26.00
2024-02-04T12:09:55.131Z,25.43
2024-02-04T12:10:55.082Z,25.03
2024-02-04T12:11:55.168Z,24.41
2024-02-04T12:12:55.297Z,24.34
2024-02-04T12:13:55.193Z,24.70
2024-02-04T12:14:55.141Z,25.05
2024-02-04T12:15:55.299Z,25.45
2024-02-04T12:21:19.205Z,24.83
2024-02-04T12:22:19.705Z,24.46
2024-02-04T12:23:19.011Z,24.07
2024-02-04T12:24:18.740Z,23.85
2024-02-04T12:25:18.655Z,23.82
2024-02-04T12:26:18.734Z,24.08
2024-02-04T12:27:18.659Z,23.86
2024-02-04T12:28:18.604Z,23.31
2024-02-04T12:29:18.586Z,23.03
2024-02-04T12:30:18.664Z,23.38
2024-02-04T12:31:18.796Z,23.97
2024-02-04T12:32:18.599Z,23.94
2024-02-04T12:33:18.666Z,24.43
2024-02-04T12:34:18.592Z,24.70
2024-02-04T12:35:18.616Z,25.07
2024-02-04T12:36:18.617Z,26.13
2024-02-04T12:37:18.744Z,28.65
2024-02-04T12:38:18.553Z,30.66
2024-02-04T12:39:18.552Z,32.19
2024-02-04T12:40:18.659Z,33.10
2024-02-04T12:41:18.535Z,33.77
2024-02-04T12:42:18.625Z,34.46
2024-02-04T12:43:18.668Z,35.33
2024-02-04T12:44:18.546Z,35.55
2024-02-04T12:45:18.661Z,36.17
2024-02-04T12:46:19.049Z,36.46
2024-02-04T12:47:18.681Z,37.15
2024-02-04T12:48:18.674Z,37.56
2024-02-04T12:49:18.795Z,37.60
2024-02-04T12:50:18.727Z,39.14
2024-02-04T12:51:18.758Z,40.07
2024-02-04T12:52:18.810Z,40.63
2024-02-04T12:53:18.836Z,40.76
2024-02-04T12:54:18.813Z,40.65
2024-02-04T12:55:19.000Z,41.04
2024-02-04T12:56:18.868Z,41.08
2024-02-04T12:57:18.951Z,41.12
2024-02-04T12:58:19.044Z,41.69
2024-02-04T12:59:18.961Z,41.99
2024-02-04T13:00:19.077Z,42.25
2024-02-04T13:01:19.344Z,42.90
2024-02-04T13:02:19.074Z,43.07
2024-02-04T13:03:19.329Z,43.43
2024-02-04T13:04:19.213Z,43.24
2024-02-04T13:05:19.330Z,43.34
2024-02-04T13:06:19.342Z,43.29
2024-02-04T13:07:19.649Z,43.16
2024-02-04T13:08:19.330Z,43.07
2024-02-04T13:09:19.343Z,42.84
2024-02-04T13:10:19.436Z,43.38
2024-02-04T13:11:19.446Z,43.33
2024-02-04T13:12:19.457Z,43.89
2024-02-04T13:13:19.596Z,43.86
2024-02-04T13:14:19.461Z,43.62
2024-02-04T13:15:19.625Z,43.64
2024-02-04T13:16:19.746Z,43.73
2024-02-04T13:17:19.671Z,43.73
2024-02-04T13:18:19.716Z,43.86
2024-02-04T13:19:19.725Z,43.95
2024-02-04T13:20:19.729Z,44.18
2024-02-04T13:21:19.733Z,44.77
2024-02-04T13:22:19.771Z,44.69
2024-02-04T13:23:19.964Z,44.59
2024-02-04T13:24:19.815Z,44.28
2024-02-04T13:25:20.035Z,44.34
2024-02-04T13:26:19.966Z,44.06
2024-02-04T13:27:19.854Z,44.15
2024-02-04T13:28:20.071Z,44.42
2024-02-04T13:29:19.913Z,44.60
2024-02-04T13:30:20.030Z,44.97
2024-02-04T13:31:20.479Z,45.31
2024-02-04T13:32:20.148Z,45.54
2024-02-04T13:33:21.156Z,45.93
2024-02-04T13:34:22.120Z,46.31
2024-02-04T13:35:20.980Z,46.27
2024-02-04T13:36:20.227Z,46.56
2024-02-04T13:37:20.264Z,46.43
2024-02-04T13:38:20.225Z,46.41
2024-02-04T13:39:20.150Z,46.83
2024-02-04T13:40:20.524Z,46.96
2024-02-04T13:41:20.383Z,46.83
2024-02-04T13:42:20.267Z,46.63
2024-02-04T13:43:20.459Z,46.33
2024-02-04T13:44:20.476Z,45.87
2024-02-04T13:45:20.406Z,46.04
2024-02-04T13:46:20.333Z,46.13
2024-02-04T13:47:20.409Z,46.05
2024-02-04T13:48:20.606Z,45.98
2024-02-04T13:49:20.583Z,45.78
2024-02-04T13:50:20.612Z,45.40
2024-02-04T13:51:32.421Z,45.26
2024-02-04T13:52:21.634Z,45.51
2024-02-04T13:53:20.548Z,45.56
2024-02-04T13:54:20.680Z,45.37
2024-02-04T13:55:20.620Z,45.29
2024-02-04T13:56:20.596Z,45.22
2024-02-04T13:57:20.487Z,45.46
2024-02-04T13:58:20.719Z,45.60
2024-02-04T13:59:20.485Z,45.70
2024-02-04T14:00:20.502Z,45.62
2024-02-04T14:01:20.596Z,45.27
2024-02-04T14:02:20.547Z,45.21
2024-02-04T14:03:20.547Z,45.43
2024-02-04T14:04:20.634Z,45.48
2024-02-04T14:05:20.470Z,45.82
2024-02-04T14:06:20.615Z,46.09
2024-02-04T14:07:20.688Z,46.35
2024-02-04T14:08:20.598Z,46.47
2024-02-04T14:09:20.568Z,46.94
2024-02-04T14:10:20.641Z,46.68
2024-02-04T14:11:20.620Z,46.69
2024-02-04T14:12:20.592Z,46.85
2024-02-04T14:13:20.606Z,47.06
2024-02-04T14:14:20.599Z,46.95
2024-02-04T14:15:20.727Z,47.01
2024-02-04T14:16:21.094Z,47.00
2024-02-04T14:17:20.737Z,47.28
2024-02-04T14:18:20.826Z,47.16
2024-02-04T14:19:20.824Z,46.56
2024-02-04T14:20:21.387Z,46.84
2024-02-04T14:21:20.842Z,47.29
2024-02-04T14:22:21.030Z,47.76
2024-02-04T14:23:21.094Z,48.37
2024-02-04T14:24:21.097Z,48.63
2024-02-04T14:25:21.054Z,48.56
2024-02-04T14:26:20.986Z,48.38
2024-02-04T14:27:21.015Z,48.42
2024-02-04T14:28:21.217Z,48.54
2024-02-04T14:29:21.117Z,48.54
2024-02-04T14:30:21.258Z,48.63
2024-02-04T14:31:21.223Z,48.75
2024-02-04T14:32:21.117Z,47.43
2024-02-04T14:33:21.164Z,47.79
2024-02-04T14:34:21.345Z,47.67
2024-02-04T14:35:21.271Z,47.25
2024-02-04T14:36:21.287Z,47.06
2024-02-04T14:37:21.440Z,47.05
2024-02-04T14:38:21.301Z,47.36
2024-02-04T14:39:21.846Z,47.28
2024-02-04T14:40:21.420Z,47.17
2024-02-04T14:41:21.431Z,47.26
2024-02-04T14:42:21.539Z,47.06
2024-02-04T14:43:21.557Z,46.83
2024-02-04T14:44:21.493Z,46.68
2024-02-04T14:45:21.853Z,46.94
2024-02-04T14:46:21.603Z,46.78
2024-02-04T14:47:21.531Z,47.05
2024-02-04T14:48:21.741Z,47.19
2024-02-04T14:49:21.754Z,47.15
2024-02-04T14:50:21.593Z,46.84
2024-02-04T14:51:21.601Z,46.65
2024-02-04T14:52:21.768Z,46.65
2024-02-04T14:53:21.625Z,46.48
2024-02-04T14:54:21.722Z,46.96
2024-02-04T14:55:22.503Z,47.05
2024-02-04T14:56:21.804Z,46.91
2024-02-04T14:57:21.754Z,46.21
2024-02-04T14:58:22.863Z,46.26
2024-02-04T14:59:23.264Z,47.01
2024-02-04T15:00:21.924Z,47.44
2024-02-04T15:01:22.541Z,47.16
2024-02-04T15:02:22.436Z,46.92
2024-02-04T15:03:21.942Z,47.00
2024-02-04T15:04:22.153Z,47.82
2024-02-04T15:05:22.077Z,48.06
2024-02-04T15:06:22.158Z,48.99
2024-02-04T15:07:22.392Z,49.35
2024-02-04T15:08:22.173Z,49.57
2024-02-04T15:09:22.096Z,49.54
2024-02-04T15:10:22.261Z,49.44
2024-02-04T15:11:22.168Z,49.47
2024-02-04T15:12:22.230Z,49.38
2024-02-04T15:13:22.262Z,49.26
2024-02-04T15:14:22.274Z,49.54
2024-02-04T15:15:22.250Z,49.78
2024-02-04T15:16:22.357Z,50.08
2024-02-04T15:17:22.357Z,50.02
2024-02-04T15:18:22.366Z,49.87
2024-02-04T15:19:26.014Z,49.22
2024-02-04T15:20:22.705Z,48.92
2024-02-04T15:21:24.528Z,48.92
2024-02-04T15:22:22.563Z,48.90
2024-02-04T15:23:22.491Z,48.80
2024-02-04T15:24:22.407Z,49.17
2024-02-04T15:25:22.468Z,47.89
2024-02-04T15:26:22.335Z,48.13
2024-02-04T15:27:22.413Z,47.68
2024-02-04T15:28:22.523Z,47.74
2024-02-04T15:29:22.454Z,47.56
2024-02-04T15:30:22.591Z,47.53
2024-02-04T15:31:22.818Z,47.45
2024-02-04T15:32:22.529Z,47.40
2024-02-04T15:33:22.714Z,47.50
2024-02-04T15:34:22.874Z,47.29
2024-02-04T15:35:22.511Z,47.71
2024-02-04T15:36:23.540Z,48.45
2024-02-04T15:37:22.611Z,48.76
2024-02-04T15:38:22.617Z,48.87
2024-02-04T15:39:23.155Z,49.05
2024-02-04T15:40:22.855Z,49.29
2024-02-04T15:41:22.739Z,49.26
2024-02-04T15:42:22.761Z,49.25
2024-02-04T15:43:23.840Z,49.29
2024-02-04T15:44:22.876Z,49.47
2024-02-04T15:45:22.879Z,49.76
2024-02-04T15:46:23.001Z,50.06
2024-02-04T15:47:22.989Z,49.84
2024-02-04T15:48:23.129Z,49.92
2024-02-04T15:49:23.256Z,50.24
2024-02-04T15:50:23.241Z,50.59
2024-02-04T15:51:23.327Z,51.04
2024-02-04T15:52:23.232Z,51.40
2024-02-04T15:53:23.202Z,51.89
2024-02-04T15:54:23.232Z,52.20
2024-02-04T15:55:23.408Z,52.24
2024-02-04T15:56:23.342Z,52.34
2024-02-04T15:57:23.372Z,52.36
2024-02-04T15:58:23.400Z,51.17
2024-02-04T15:59:23.374Z,50.77
2024-02-04T16:00:23.528Z,51.60
2024-02-04T16:01:23.551Z,51.50
2024-02-04T16:02:23.600Z,51.89
2024-02-04T16:03:23.602Z,51.87
2024-02-04T16:04:23.789Z,52.17
2024-02-04T16:05:23.586Z,52.27
2024-02-04T16:06:23.738Z,52.02
2024-02-04T16:07:23.822Z,52.24
2024-02-04T16:08:23.646Z,52.46
2024-02-04T16:09:23.653Z,52.26
2024-02-04T16:10:23.702Z,52.47
2024-02-04T16:11:23.731Z,53.11
2024-02-04T16:12:23.703Z,53.72
2024-02-04T16:13:23.914Z,54.06
2024-02-04T16:14:23.788Z,54.32
2024-02-04T16:15:23.901Z,54.43
2024-02-04T16:16:24.045Z,54.68
2024-02-04T16:17:23.914Z,54.59
2024-02-04T16:18:24.128Z,54.64
2024-02-04T16:19:24.040Z,54.79
2024-02-04T16:20:24.317Z,54.97
2024-02-04T16:21:24.051Z,54.62
2024-02-04T16:22:24.267Z,54.30
2024-02-04T16:23:24.339Z,54.22
2024-02-04T16:24:24.167Z,54.25
2024-02-04T16:25:24.320Z,53.90
2024-02-04T16:26:24.578Z,53.96
2024-02-04T16:27:24.378Z,54.05
2024-02-04T16:28:24.410Z,53.69
2024-02-04T16:29:24.388Z,53.98
2024-02-04T16:30:25.653Z,54.40
2024-02-04T16:31:24.541Z,55.09
2024-02-04T16:32:25.539Z,55.73
2024-02-04T16:33:24.611Z,56.03
2024-02-04T16:34:24.827Z,56.54
2024-02-04T16:35:24.551Z,56.56
2024-02-04T16:36:24.594Z,56.40
2024-02-04T16:37:25.695Z,56.97
2024-02-04T16:38:24.625Z,56.16
2024-02-04T16:39:24.665Z,55.96
2024-02-04T16:40:24.919Z,56.01
2024-02-04T16:41:24.813Z,56.66
2024-02-04T16:42:24.831Z,56.58
2024-02-04T16:43:24.820Z,56.84
2024-02-04T16:44:24.918Z,56.96
2024-02-04T16:45:24.960Z,57.32
2024-02-04T16:46:24.990Z,56.53
2024-02-04T16:47:25.051Z,56.90
2024-02-04T16:48:24.966Z,57.33
2024-02-04T16:49:27.747Z,57.73
2024-02-04T16:50:25.067Z,58.19
2024-02-04T16:51:24.964Z,58.18
2024-02-04T16:52:25.884Z,58.26
2024-02-04T16:53:25.023Z,58.38
2024-02-04T16:54:28.152Z,58.33
2024-02-04T16:55:25.125Z,58.23
2024-02-04T16:56:24.926Z,58.28
2024-02-04T16:57:25.002Z,57.98
2024-02-04T16:58:25.078Z,57.95
2024-02-04T16:59:24.956Z,57.37
2024-02-04T17:00:24.921Z,57.54
2024-02-04T17:01:24.961Z,57.62
2024-02-04T17:02:24.931Z,57.39
2024-02-04T17:03:24.929Z,57.53
2024-02-04T17:04:24.977Z,57.66
2024-02-04T17:05:26.485Z,58.00
2024-02-04T17:06:25.013Z,58.43
2024-02-04T17:07:24.969Z,58.62
2024-02-04T17:08:25.183Z,58.62
2024-02-04T17:09:24.872Z,58.45
2024-02-04T17:10:25.035Z,58.54
2024-02-04T17:11:25.087Z,58.78
2024-02-04T17:12:24.925Z,58.99
2024-02-04T17:13:24.877Z,59.09
2024-02-04T17:14:24.802Z,58.59
2024-02-04T17:15:24.927Z,58.34
2024-02-04T17:16:24.831Z,58.47
2024-02-04T17:17:24.942Z,58.51
2024-02-04T17:18:25.035Z,58.72
2024-02-04T17:19:24.884Z,58.51
2024-02-04T17:20:24.838Z,58.80
2024-02-04T17:21:24.893Z,59.14
2024-02-04T17:22:24.974Z,59.44
2024-02-04T17:23:24.786Z,59.53
2024-02-04T17:24:24.761Z,59.52
2024-02-04T17:25:24.903Z,59.72
2024-02-04T17:26:24.747Z,59.88
2024-02-04T17:27:24.817Z,59.94
2024-02-04T17:28:24.781Z,60.09
2024-02-04T17:29:24.725Z,60.24
2024-02-04T17:30:24.912Z,60.06
2024-02-04T17:31:24.727Z,59.99
2024-02-04T17:32:24.723Z,60.13
2024-02-04T17:33:24.870Z,59.59
2024-02-04T17:34:24.937Z,58.84
2024-02-04T17:35:24.653Z,59.02
2024-02-04T17:36:24.806Z,59.12
2024-02-04T17:37:24.779Z,58.98
2024-02-04T17:38:24.726Z,59.67
2024-02-04T17:39:24.671Z,60.40
2024-02-04T17:40:24.842Z,60.76
2024-02-04T17:41:24.920Z,60.81
2024-02-04T17:42:24.899Z,60.71
2024-02-04T17:43:24.834Z,60.60
2024-02-04T17:44:24.746Z,60.32
2024-02-04T17:45:25.785Z,60.09
2024-02-04T17:46:24.733Z,59.43
2024-02-04T17:47:24.701Z,59.08
2024-02-04T17:48:24.806Z,59.12
2024-02-04T17:49:24.722Z,59.30
2024-02-04T17:50:27.068Z,59.42
2024-02-04T17:51:24.606Z,59.55
2024-02-04T17:52:27.526Z,59.52
2024-02-04T17:53:24.579Z,59.65
2024-02-04T17:54:24.582Z,59.58
2024-02-04T17:55:24.626Z,58.24
2024-02-04T17:56:24.584Z,57.61
2024-02-04T17:57:24.788Z,58.60
2024-02-04T17:58:24.592Z,58.57
2024-02-04T17:59:24.650Z,58.39
2024-02-04T18:00:24.626Z,58.49
2024-02-04T18:01:24.700Z,58.50
2024-02-04T18:02:33.904Z,58.77
2024-02-04T18:03:25.554Z,58.95
2024-02-04T18:04:24.797Z,59.14
2024-02-04T18:05:26.057Z,59.17
2024-02-04T18:06:24.498Z,57.16
2024-02-04T18:07:24.687Z,55.90
2024-02-04T18:08:25.490Z,57.13
2024-02-04T18:09:24.468Z,56.91
2024-02-04T18:10:24.513Z,56.04
2024-02-04T18:11:24.482Z,56.18
2024-02-04T18:12:24.499Z,56.27
2024-02-04T18:13:24.521Z,56.24
2024-02-04T18:14:24.611Z,55.59
2024-02-04T18:15:24.434Z,55.87
2024-02-04T18:16:24.425Z,53.68
2024-02-04T18:17:24.402Z,53.79
2024-02-04T18:18:24.519Z,54.95
2024-02-04T18:19:25.198Z,56.35
2024-02-04T18:20:24.433Z,56.61
2024-02-04T18:21:24.612Z,56.86
2024-02-04T18:22:24.398Z,56.45
2024-02-04T18:23:24.400Z,56.21
2024-02-04T18:24:24.491Z,55.85
2024-02-04T18:25:24.517Z,55.61
2024-02-04T18:26:24.522Z,55.80
2024-02-04T18:27:24.615Z,55.79
2024-02-04T18:28:24.628Z,53.69
2024-02-04T18:29:24.636Z,54.42
2024-02-04T18:30:24.866Z,54.37
2024-02-04T18:31:24.794Z,53.38
2024-02-04T18:32:25.160Z,52.31
2024-02-04T18:33:24.865Z,51.33
2024-02-04T18:34:25.220Z,50.74
2024-02-04T18:35:24.986Z,49.96
2024-02-04T18:36:25.011Z,49.38
2024-02-04T18:37:25.027Z,49.49
2024-02-04T18:38:24.997Z,50.10
2024-02-04T18:39:25.245Z,48.37
2024-02-04T18:40:25.087Z,48.00
2024-02-04T18:41:25.104Z,50.77
2024-02-04T18:42:25.120Z,52.89
2024-02-04T18:43:25.154Z,53.59
2024-02-04T18:44:25.278Z,55.12
2024-02-04T18:45:25.183Z,55.80
2024-02-04T18:46:25.271Z,56.14
2024-02-04T18:47:25.348Z,56.75
2024-02-04T18:48:25.313Z,56.89
2024-02-04T18:49:25.496Z,57.14
2024-02-04T18:50:25.580Z,57.52
2024-02-04T18:51:25.513Z,57.92
2024-02-04T18:52:25.821Z,58.00
2024-02-04T18:53:26.403Z,58.43
2024-02-04T18:54:25.504Z,58.60
2024-02-04T18:55:25.713Z,58.67
2024-02-04T18:56:25.512Z,58.02
2024-02-04T18:57:25.957Z,57.59
2024-02-04T18:58:25.474Z,57.06
2024-02-04T18:59:25.578Z,58.15
2024-02-04T19:00:25.667Z,54.31
2024-02-04T19:01:25.660Z,53.04
2024-02-04T19:02:25.632Z,52.20
2024-02-04T19:03:25.604Z,51.76
2024-02-04T19:04:28.557Z,51.80
2024-02-04T19:05:25.769Z,51.12
2024-02-04T19:06:25.713Z,51.11
2024-02-04T19:07:25.655Z,53.33
2024-02-04T19:08:25.620Z,55.18
2024-02-04T19:09:25.588Z,56.19
2024-02-04T19:10:25.641Z,57.11
2024-02-04T19:11:25.949Z,57.45
2024-02-04T19:12:25.569Z,57.74
2024-02-04T19:13:25.585Z,57.91
2024-02-04T19:14:25.588Z,57.93
2024-02-04T19:15:25.798Z,58.47
2024-02-04T19:16:25.585Z,59.77
2024-02-04T19:17:25.697Z,60.44
2024-02-04T19:18:26.022Z,60.66
2024-02-04T19:19:26.058Z,59.62
2024-02-04T19:20:25.570Z,58.38
2024-02-04T19:21:25.750Z,57.46
2024-02-04T19:22:25.573Z,54.24
2024-02-04T19:23:25.500Z,55.71
2024-02-04T19:24:26.427Z,56.88
2024-02-04T19:25:25.657Z,57.60
2024-02-04T19:26:26.437Z,57.87
2024-02-04T19:27:25.456Z,58.78
2024-02-04T19:28:25.451Z,60.11
2024-02-04T19:29:25.493Z,60.54
2024-02-04T19:30:25.651Z,60.70
2024-02-04T19:31:25.460Z,61.36
2024-02-04T19:32:25.546Z,61.75
2024-02-04T19:34:45.220Z,63.03
2024-02-04T19:35:45.550Z,62.90
2024-02-04T19:36:48.032Z,62.99
2024-02-04T19:37:44.880Z,62.75
2024-02-04T19:38:44.882Z,62.76
2024-02-04T19:39:45.011Z,62.69
2024-02-04T19:40:44.806Z,62.81
2024-02-04T19:41:44.911Z,63.10
2024-02-04T19:42:44.853Z,63.16
2024-02-04T19:43:44.819Z,63.25
2024-02-04T19:44:44.901Z,63.37
2024-02-04T19:45:44.930Z,63.63